Time;durP1;ratioP1;P1;durP2;ratioP2;P2;SDS_P1;SDS_P2;PMS_P1;PMS_P2;Temp;Humidity;BMP_temperature;BMP_pressure;BME280_temperature;BME280_humidity;BME280_pressure;Samples;Min_cycle;Max_cycle;Signal;HPM_P1;HPM_P2
2020/12/30 00:01:41;;;;;;;26.83;11.82;;;;;;;;;;6199003;22;20034;-88
2020/12/30 00:04:40;;;;;;;34.05;14.60;;;3.60;99.90;;;;;;6272650;22;20004;-87
2020/12/30 00:07:15;;;;;;;27.92;12.02;;;;;;;;;;6298476;22;20003;-90
2020/12/30 00:09:45;;;;;;;27.85;13.07;;;;;;;;;;6296227;22;20023;-90
2020/12/30 00:12:20;;;;;;;33.92;14.02;;;;;;;;;;6272216;22;20030;-88
2020/12/30 00:14:54;;;;;;;27.42;12.60;;;;;;;;;;6270131;22;20019;-88
2020/12/30 00:17:32;;;;;;;23.40;12.52;;;3.40;99.90;;;;;;6297406;22;20012;-87
2020/12/30 00:20:20;;;;;;;33.45;15.25;;;;;;;;;;6296196;22;20030;-87
2020/12/30 00:23:19;;;;;;;32.72;14.30;;;3.40;99.90;;;;;;6270420;22;20026;-86
2020/12/30 00:25:49;;;;;;;31.67;15.43;;;;;;;;;;6246188;22;20024;-86
2020/12/30 00:28:26;;;;;;;30.38;13.38;;;;;;;;;;6271354;22;20023;-89
2020/12/30 00:31:05;;;;;;;26.98;11.18;;;;;;;;;;6249603;22;20020;-89
2020/12/30 00:36:56;;;;;;;36.78;13.43;;;;;;;;;;6292170;22;20026;-88
2020/12/30 00:40:06;;;;;;;34.40;13.98;;;;;;;;;;6252993;22;20012;-87
2020/12/30 00:42:51;;;;;;;31.52;15.40;;;;;;;;;;6249403;22;20026;-87
2020/12/30 00:45:29;;;;;;;29.40;16.05;;;;;;;;;;6249130;22;20020;-87
2020/12/30 00:48:01;;;;;;;37.00;14.40;;;;;;;;;;6297016;22;20012;-88
2020/12/30 00:50:33;;;;;;;45.72;15.02;;;;;;;;;;6273982;22;20026;-89
2020/12/30 00:53:03;;;;;;;33.72;17.00;;;;;;;;;;6274790;22;20043;-89
2020/12/30 00:55:35;;;;;;;30.05;15.82;;;;;;;;;;6274276;22;20301;-87
2020/12/30 00:58:28;;;;;;;30.83;14.35;;;;;;;;;;6259592;22;20021;-91
2020/12/30 01:01:25;;;;;;;27.42;15.90;;;;;;;;;;6293452;22;20165;-88
2020/12/30 01:04:26;;;;;;;31.10;14.65;;;;;;;;;;6283784;22;20019;-89
2020/12/30 01:07:03;;;;;;;33.58;14.88;;;;;;;;;;6293960;22;20022;-89
2020/12/30 01:09:35;;;;;;;36.78;15.80;;;;;;;;;;6243680;22;20037;-89
2020/12/30 01:12:29;;;;;;;54.85;18.20;;;;;;;;;;6243962;22;20015;-89
2020/12/30 01:15:01;;;;;;;;;;;2.90;99.90;;;;;;6289301;22;20027;-87
2020/12/30 01:17:33;;;;;;;34.25;14.60;;;2.90;99.90;;;;;;6238675;22;19926;-89
2020/12/30 01:20:23;;;;;;;32.35;16.52;;;;;;;;;;6264641;22;20015;-89
2020/12/30 01:22:52;;;;;;;31.15;17.08;;;;;;;;;;6263560;22;20023;-87
2020/12/30 01:25:21;;;;;;;35.05;15.65;;;;;;;;;;6261314;22;20016;-88
2020/12/30 01:27:55;;;;;;;28.40;14.40;;;3.00;99.90;;;;;;6213929;22;20019;-88
2020/12/30 01:30:39;;;;;;;30.70;14.50;;;;;;;;;;6216917;22;20011;-90
2020/12/30 01:33:11;;;;;;;37.38;16.88;;;;;;;;;;6292961;22;20022;-90
2020/12/30 01:35:57;;;;;;;34.65;16.27;;;;;;;;;;6247613;22;20486;-88
2020/12/30 01:38:32;;;;;;;32.97;15.88;;;;;;;;;;6214814;22;20012;-88
2020/12/30 01:41:03;;;;;;;31.08;14.75;;;;;;;;;;6241979;22;20026;-86
2020/12/30 01:43:33;;;;;;;39.00;17.33;;;3.00;99.90;;;;;;6287799;22;20022;-88
2020/12/30 01:46:04;;;;;;;31.57;15.33;;;;;;;;;;6263824;22;20019;-88
2020/12/30 01:48:37;;;;;;;;;;;3.00;99.90;;;;;;6291344;22;20252;-87
2020/12/30 01:51:15;;;;;;;23.45;11.43;;;;;;;;;;6287817;22;19925;-90
2020/12/30 01:53:43;;;;;;;30.70;15.70;;;;;;;;;;6288161;22;20030;-91
2020/12/30 01:56:15;;;;;;;33.90;14.23;;;3.00;99.90;;;;;;6235335;22;20256;-88
2020/12/30 01:59:22;;;;;;;36.40;17.33;;;3.00;99.90;;;;;;6238940;22;20045;-90
2020/12/30 02:02:00;;;;;;;33.28;15.23;;;3.00;99.90;;;;;;6245221;22;20010;-89
2020/12/30 02:04:56;;;;;;;34.20;15.90;;;2.90;99.90;;;;;;6299380;22;20020;-88
2020/12/30 02:07:37;;;;;;;40.22;15.38;;;;;;;;;;6240163;22;20041;-87
2020/12/30 02:10:05;;;;;;;32.17;14.80;;;;;;;;;;6210218;22;20027;-88
2020/12/30 02:12:40;;;;;;;36.42;17.35;;;;;;;;;;6288137;22;20019;-89
2020/12/30 02:15:30;;;;;;;36.13;16.02;;;2.90;99.90;;;;;;6258770;22;20019;-87
2020/12/30 02:18:57;;;;;;;30.75;18.48;;;;;;;;;;6297670;22;20027;-87
2020/12/30 02:21:36;;;;;;;34.75;14.82;;;;;;;;;;6238711;22;20030;-89
2020/12/30 02:24:07;;;;;;;34.63;17.40;;;;;;;;;;6238596;22;20019;-89
2020/12/30 02:26:42;;;;;;;39.58;20.02;;;;;;;;;;6263419;22;20019;-90
2020/12/30 02:29:10;;;;;;;35.55;16.17;;;;;;;;;;6262456;22;20022;-89
2020/12/30 02:31:40;;;;;;;35.33;15.98;;;;;;;;;;6261264;22;20015;-91
2020/12/30 02:34:11;;;;;;;37.47;15.85;;;;;;;;;;6238043;22;20459;-89
2020/12/30 02:36:41;;;;;;;34.03;14.32;;;;;;;;;;6262123;22;20371;-88
2020/12/30 02:39:12;;;;;;;33.20;16.38;;;;;;;;;;6234393;22;20033;-89
2020/12/30 02:41:41;;;;;;;30.40;13.18;;;;;;;;;;6211230;22;20012;-87
2020/12/30 02:44:11;;;;;;;34.00;17.63;;;;;;;;;;6287796;22;20012;-87
2020/12/30 02:46:40;;;;;;;32.63;15.27;;;;;;;;;;6285210;22;20026;-86
2020/12/30 02:49:17;;;;;;;33.15;15.25;;;;;;;;;;6288115;22;20020;-90
2020/12/30 02:51:48;;;;;;;44.97;15.60;;;;;;;;;;6236298;22;20015;-88
2020/12/30 02:54:20;;;;;;;33.90;16.70;;;;;;;;;;6281647;22;20026;-90
2020/12/30 02:56:48;;;;;;;29.30;15.30;;;;;;;;;;6235082;22;20022;-89
2020/12/30 02:59:18;;;;;;;31.27;15.15;;;;;;;;;;6259946;22;20023;-87
2020/12/30 03:01:49;;;;;;;45.15;18.00;;;;;;;;;;6260483;22;20016;-91
2020/12/30 03:04:18;;;;;;;26.13;14.73;;;;;;;;;;6234615;22;20024;-88
2020/12/30 03:06:51;;;;;;;33.28;13.80;;;;;;;;;;6259883;22;20016;-89
2020/12/30 03:09:20;;;;;;;39.42;17.05;;;;;;;;;;6284401;22;20015;-87
2020/12/30 03:11:50;;;;;;;41.40;18.17;;;;;;;;;;6287393;22;20015;-90
2020/12/30 03:14:19;;;;;;;33.83;15.35;;;2.10;99.90;;;;;;6284938;22;20027;-90
2020/12/30 03:16:51;;;;;;;35.50;18.08;;;;;;;;;;6285284;22;20016;-88
2020/12/30 03:19:19;;;;;;;36.85;18.60;;;2.00;99.90;;;;;;6233868;22;20019;-89
2020/12/30 03:21:53;;;;;;;33.65;15.82;;;;;;;;;;6260274;22;20020;-87
2020/12/30 03:24:21;;;;;;;34.38;17.27;;;;;;;;;;6282842;22;20339;-89
2020/12/30 03:26:53;;;;;;;35.40;18.05;;;;;;;;;;6286338;22;20016;-89
2020/12/30 03:29:21;;;;;;;38.00;17.55;;;;;;;;;;6285864;22;20007;-88
2020/12/30 03:31:53;;;;;;;38.63;20.67;;;;;;;;;;6285775;22;20339;-88
2020/12/30 03:34:23;;;;;;;37.78;16.10;;;;;;;;;;6232734;22;20026;-89
2020/12/30 03:36:52;;;;;;;35.08;17.63;;;1.90;99.90;;;;;;6285747;22;20024;-87
2020/12/30 03:39:22;;;;;;;32.97;16.10;;;;;;;;;;6261153;22;20023;-87
2020/12/30 03:41:52;;;;;;;38.75;19.85;;;;;;;;;;6260748;22;20045;-87
2020/12/30 03:44:23;;;;;;;40.67;18.25;;;;;;;;;;6205517;22;20033;-90
2020/12/30 03:46:50;;;;;;;40.13;17.33;;;;;;;;;;6253148;22;20026;-89
2020/12/30 03:49:21;;;;;;;39.47;18.52;;;;;;;;;;6278220;22;20019;-89
2020/12/30 03:51:48;;;;;;;40.13;20.00;;;;;;;;;;6279673;22;20355;-89
2020/12/30 03:54:16;;;;;;;42.75;20.50;;;;;;;;;;6280868;22;20020;-92
2020/12/30 03:56:43;;;;;;;40.63;17.08;;;;;;;;;;6279138;22;20041;-89
2020/12/30 03:59:11;;;;;;;39.22;16.67;;;;;;;;;;6252833;22;20030;-89
2020/12/30 04:01:41;;;;;;;;;;;1.70;99.90;;;;;;6253925;22;20383;-88
2020/12/30 04:04:13;;;;;;;39.80;17.48;;;1.60;99.90;;;;;;6281161;22;20243;-92
2020/12/30 04:06:46;;;;;;;21.17;11.20;;;1.60;99.90;;;;;;6280686;22;20019;-89
2020/12/30 04:09:13;;;;;;;32.90;17.02;;;;;;;;;;6278485;22;20339;-89
2020/12/30 04:11:41;;;;;;;32.55;16.38;;;;;;;;;;6282610;22;20019;-87
2020/12/30 04:14:08;;;;;;;34.70;14.85;;;;;;;;;;6252985;22;20448;-88
2020/12/30 04:16:36;;;;;;;45.38;16.95;;;;;;;;;;6277909;22;20020;-88
2020/12/30 04:19:04;;;;;;;50.10;19.13;;;;;;;;;;6281284;22;20012;-90
2020/12/30 04:21:32;;;;;;;35.22;16.52;;;;;;;;;;6231476;22;20019;-89
2020/12/30 04:24:02;;;;;;;44.58;17.45;;;;;;;;;;6286956;22;20732;-88
2020/12/30 04:26:30;;;;;;;38.97;18.67;;;;;;;;;;6230006;22;20019;-88
2020/12/30 04:28:57;;;;;;;39.53;16.63;;;;;;;;;;6281969;22;20019;-88
2020/12/30 04:31:25;;;;;;;36.80;16.05;;;;;;;;;;6228739;22;20325;-90
2020/12/30 04:33:53;;;;;;;50.65;19.13;;;;;;;;;;6276452;22;20038;-86
2020/12/30 04:36:22;;;;;;;27.17;11.38;;;;;;;;;;6277504;22;20020;-88
2020/12/30 04:38:52;;;;;;;33.50;15.90;;;;;;;;;;6255236;22;20022;-90
2020/12/30 04:41:35;;;;;;;42.10;15.75;;;1.70;99.90;;;;;;6278454;22;20016;-87
2020/12/30 04:44:05;;;;;;;36.58;14.65;;;1.60;99.90;;;;;;6228423;22;20035;-87
2020/12/30 04:46:34;;;;;;;41.92;16.33;;;;;;;;;;6253071;22;20185;-87
2020/12/30 04:49:04;;;;;;;33.50;11.15;;;;;;;;;;6275816;22;20435;-86
2020/12/30 04:51:35;;;;;;;31.35;13.95;;;1.60;99.90;;;;;;6277327;22;20020;-86
2020/12/30 04:54:06;;;;;;;;;;;1.70;99.90;;;;;;6253906;22;20015;-89
2020/12/30 04:56:59;;;;;;;33.70;13.82;;;1.60;99.90;;;;;;6252736;22;19926;-87
2020/12/30 04:59:34;;;;;;;31.77;14.45;;;1.60;99.90;;;;;;6278995;22;20026;-88
2020/12/30 05:02:08;;;;;;;33.47;14.27;;;1.50;99.90;;;;;;6254014;22;20035;-87
2020/12/30 05:04:42;;;;;;;29.23;12.95;;;1.60;99.90;;;;;;6279001;22;20023;-89
2020/12/30 05:07:27;;;;;;;29.63;13.70;;;1.60;99.90;;;;;;6255239;22;20023;-87
2020/12/30 05:09:56;;;;;;;33.17;14.30;;;1.60;99.90;;;;;;6279922;22;20024;-88
2020/12/30 05:12:25;;;;;;;26.27;11.63;;;1.60;99.90;;;;;;6253405;22;20016;-89
2020/12/30 05:14:53;;;;;;;31.58;13.43;;;;;;;;;;6272978;22;20028;-87
2020/12/30 05:17:20;;;;;;;36.58;13.57;;;;;;;;;;6275182;22;20019;-86
2020/12/30 05:19:49;;;;;;;25.00;12.63;;;;;;;;;;6279788;22;20012;-87
2020/12/30 05:22:20;;;;;;;31.23;12.13;;;;;;;;;;6282026;22;20458;-89
2020/12/30 05:24:49;;;;;;;32.92;12.68;;;;;;;;;;6254589;22;20016;-88
2020/12/30 05:27:17;;;;;;;27.65;14.43;;;;;;;;;;6279482;22;20019;-88
2020/12/30 05:29:52;;;;;;;22.50;11.40;;;1.70;99.90;;;;;;6254723;22;20015;-87
2020/12/30 05:32:20;;;;;;;28.55;11.88;;;;;;;;;;6282220;22;20015;-87
2020/12/30 05:34:47;;;;;;;25.25;11.85;;;;;;;;;;6279833;22;20034;-88
2020/12/30 05:37:17;;;;;;;24.70;11.35;;;;;;;;;;6286141;22;20046;-86
2020/12/30 05:39:46;;;;;;;20.75;9.82;;;;;;;;;;6285498;22;20015;-91
2020/12/30 05:42:20;;;;;;;26.42;10.45;;;1.60;99.90;;;;;;6282931;22;20023;-90
2020/12/30 05:44:49;;;;;;;22.05;8.93;;;1.60;99.90;;;;;;6259675;22;20022;-89
2020/12/30 05:47:23;;;;;;;25.10;9.95;;;;;;;;;;6256848;22;20016;-88
2020/12/30 05:49:58;;;;;;;28.27;9.85;;;;;;;;;;6256381;22;20031;-88
2020/12/30 05:52:28;;;;;;;25.50;9.35;;;1.50;99.90;;;;;;6287749;22;20029;-87
2020/12/30 05:55:10;;;;;;;22.50;10.05;;;1.50;99.90;;;;;;6233547;22;20026;-88
2020/12/30 05:57:38;;;;;;;20.03;10.80;;;;;;;;;;6237930;22;20440;-88
2020/12/30 06:00:13;;;;;;;23.23;9.45;;;1.60;99.90;;;;;;6288069;22;20020;-87
2020/12/30 06:02:43;;;;;;;23.88;9.45;;;1.40;99.90;;;;;;6285925;22;20034;-88
2020/12/30 06:05:24;;;;;;;19.45;8.98;;;1.50;99.90;;;;;;6240042;22;20459;-90
2020/12/30 06:07:53;;;;;;;20.10;9.93;;;1.50;99.90;;;;;;6263663;22;20020;-89
2020/12/30 06:10:23;;;;;;;22.45;10.20;;;1.50;99.90;;;;;;6287744;22;20019;-90
2020/12/30 06:13:03;;;;;;;24.95;8.60;;;;;;;;;;6261819;22;20007;-90
2020/12/30 06:15:34;;;;;;;24.02;8.93;;;1.60;99.90;;;;;;6238445;22;20026;-89
2020/12/30 06:18:07;;;;;;;19.83;7.68;;;1.50;99.90;;;;;;6214288;22;20015;-88
2020/12/30 06:20:40;;;;;;;16.53;8.70;;;1.40;99.90;;;;;;6283757;22;20049;-87
2020/12/30 06:23:13;;;;;;;18.23;7.90;;;1.50;99.90;;;;;;6289900;22;20011;-88
2020/12/30 06:25:41;;;;;;;13.50;8.02;;;;;;;;;;6258642;22;20020;-88
2020/12/30 06:28:17;;;;;;;14.60;6.90;;;1.50;99.90;;;;;;6259318;22;20022;-87
2020/12/30 06:30:50;;;;;;;18.65;7.32;;;1.40;99.90;;;;;;6263940;22;20033;-91
2020/12/30 06:33:23;;;;;;;16.13;7.35;;;;;;;;;;6259707;22;20024;-88
2020/12/30 06:35:56;;;;;;;14.05;7.78;;;;;;;;;;6283982;22;20030;-89
2020/12/30 06:38:27;;;;;;;16.85;7.47;;;;;;;;;;6288035;22;20035;-89
2020/12/30 06:41:08;;;;;;;16.42;7.00;;;;;;;;;;6289894;22;20037;-89
2020/12/30 06:43:41;;;;;;;18.27;7.70;;;1.30;99.90;;;;;;6285220;22;20153;-88
2020/12/30 06:46:15;;;;;;;11.32;6.03;;;;;;;;;;6289331;22;20335;-89
2020/12/30 06:48:58;;;;;;;15.95;6.07;;;1.50;99.90;;;;;;6261912;22;20026;-90
2020/12/30 06:51:42;;;;;;;16.55;7.07;;;1.40;99.90;;;;;;6263474;22;20022;-92
2020/12/30 06:54:15;;;;;;;15.38;5.38;;;;;;;;;;6238983;22;20026;-90
2020/12/30 06:56:50;;;;;;;17.70;5.82;;;1.30;99.90;;;;;;6258656;22;20016;-90
2020/12/30 06:59:31;;;;;;;14.23;6.05;;;;;;;;;;6258445;22;20046;-87
2020/12/30 07:02:08;;;;;;;15.13;6.88;;;1.40;99.90;;;;;;6253452;23;20035;-88
2020/12/30 07:04:38;;;;;;;12.32;7.10;;;;;;;;;;6226117;23;20024;-89
2020/12/30 07:07:27;;;;;;;15.90;6.57;;;1.40;99.90;;;;;;6221506;23;20483;-87
2020/12/30 07:09:55;;;;;;;16.83;5.57;;;;;;;;;;6178616;23;20016;-92
2020/12/30 07:12:41;;;;;;;23.00;6.03;;;1.40;99.90;;;;;;6251378;23;20016;-89
2020/12/30 07:15:09;;;;;;;14.80;7.05;;;;;;;;;;6253893;23;20042;-92
2020/12/30 07:18:07;;;;;;;25.98;5.97;;;1.40;99.90;;;;;;6206676;23;20022;-91
2020/12/30 07:20:41;;;;;;;17.23;5.57;;;1.40;99.90;;;;;;6206228;23;20027;-90
2020/12/30 07:23:17;;;;;;;11.90;5.22;;;;;;;;;;6255973;23;20022;-90
2020/12/30 07:25:53;;;;;;;19.75;6.72;;;;;;;;;;6256329;23;20016;-89
2020/12/30 07:28:26;;;;;;;18.02;5.30;;;;;;;;;;6230950;23;20023;-91
2020/12/30 07:30:57;;;;;;;15.30;6.85;;;;;;;;;;6234114;23;20020;-87
2020/12/30 07:33:33;;;;;;;13.02;6.03;;;;;;;;;;6238446;23;20026;-89
2020/12/30 07:36:10;;;;;;;14.07;5.97;;;1.40;99.90;;;;;;6264539;23;20020;-88
2020/12/30 07:38:40;;;;;;;15.90;6.90;;;;;;;;;;6233442;23;20012;-87
2020/12/30 07:41:11;;;;;;;19.38;9.05;;;;;;;;;;6232527;23;20016;-86
2020/12/30 07:43:54;;;;;;;16.30;6.32;;;1.40;99.90;;;;;;6205957;23;20481;-87
2020/12/30 07:46:26;;;;;;;15.57;6.38;;;;;;;;;;6211739;23;20016;-89
2020/12/30 07:49:09;;;;;;;11.75;4.47;;;1.30;99.90;;;;;;6231980;23;20020;-91
2020/12/30 07:51:50;;;;;;;20.35;6.00;;;1.30;99.90;;;;;;6262028;23;20023;-87
2020/12/30 07:54:23;;;;;;;12.95;5.47;;;;;;;;;;6185066;23;20020;-87
2020/12/30 07:57:00;;;;;;;12.75;4.90;;;;;;;;;;6209298;23;20022;-89
2020/12/30 07:59:34;;;;;;;11.45;5.90;;;1.10;99.90;;;;;;6208515;23;20028;-87
2020/12/30 08:02:17;;;;;;;16.88;5.85;;;1.40;99.90;;;;;;6240400;22;20023;-88
2020/12/30 08:05:05;;;;;;;16.90;6.50;;;;;;;;;;6287051;22;20022;-89
2020/12/30 08:07:34;;;;;;;13.75;6.03;;;;;;;;;;6290408;22;20016;-87
2020/12/30 08:10:08;;;;;;;12.13;5.68;;;;;;;;;;6289564;22;20431;-89
2020/12/30 08:12:42;;;;;;;15.10;6.65;;;;;;;;;;6289556;22;20019;-89
2020/12/30 08:15:13;;;;;;;12.50;5.72;;;;;;;;;;6261404;22;20020;-87
2020/12/30 08:17:49;;;;;;;18.50;5.97;;;;;;;;;;6240897;22;20019;-87
2020/12/30 08:20:25;;;;;;;10.80;4.75;;;;;;;;;;6292445;22;20027;-91
2020/12/30 08:22:57;;;;;;;11.32;6.47;;;;;;;;;;6259202;22;20041;-88
2020/12/30 08:25:34;;;;;;;11.48;5.20;;;;;;;;;;6289579;22;20024;-87
2020/12/30 08:28:08;;;;;;;13.70;6.05;;;;;;;;;;6212013;22;20020;-89
2020/12/30 08:30:39;;;;;;;9.57;4.78;;;;;;;;;;6262955;22;20034;-89
2020/12/30 08:33:13;;;;;;;14.50;5.50;;;;;;;;;;6295677;22;20016;-88
2020/12/30 08:36:00;;;;;;;15.05;5.95;;;1.60;99.90;;;;;;6265170;22;20024;-90
2020/12/30 08:38:31;;;;;;;8.80;5.32;;;;;;;;;;6283775;22;20030;-90
2020/12/30 08:41:08;;;;;;;10.95;6.30;;;1.50;99.90;;;;;;6290159;22;20034;-90
2020/12/30 08:43:44;;;;;;;12.90;6.20;;;1.60;99.90;;;;;;6264038;22;20024;-87
2020/12/30 08:46:24;;;;;;;10.00;5.30;;;1.60;99.90;;;;;;6289348;22;20026;-89
2020/12/30 08:48:54;;;;;;;15.63;5.57;;;1.50;99.90;;;;;;6283874;22;20020;-88
2020/12/30 08:51:36;;;;;;;12.68;4.68;;;1.90;99.90;;;;;;6239386;22;20026;-88
2020/12/30 08:54:15;;;;;;;11.45;4.95;;;;;;;;;;6292706;22;20018;-90
2020/12/30 08:56:47;;;;;;;13.15;4.70;;;;;;;;;;6265148;22;20019;-89
2020/12/30 08:59:24;;;;;;;12.38;3.88;;;;;;;;;;6264057;22;20689;-90
2020/12/30 09:02:17;;;;;;;12.50;4.85;;;;;;;;;;6291522;22;20020;-89
2020/12/30 09:05:49;;;;;;;11.55;4.82;;;1.70;99.90;;;;;;6230574;23;20018;-91
2020/12/30 09:08:24;;;;;;;14.10;5.18;;;1.80;99.90;;;;;;6245409;23;20024;-87
2020/12/30 09:11:20;;;;;;;11.38;4.50;;;;;;;;;;6188589;23;20020;-88
2020/12/30 09:13:57;;;;;;;12.30;5.38;;;;;;;;;;6215091;23;20038;-88
2020/12/30 09:16:31;;;;;;;7.65;3.83;;;;;;;;;;6241442;23;20075;-88
2020/12/30 09:19:02;;;;;;;13.40;5.45;;;;;;;;;;6263273;23;20068;-88
2020/12/30 09:21:39;;;;;;;10.02;5.50;;;;;;;;;;6213454;23;20020;-88
2020/12/30 09:24:16;;;;;;;10.68;5.75;;;;;;;;;;6260180;23;20020;-89
2020/12/30 09:26:46;;;;;;;10.07;4.47;;;;;;;;;;6213671;23;20024;-86
2020/12/30 09:29:34;;;;;;;12.63;5.10;;;;;;;;;;6239110;23;20016;-87
2020/12/30 09:32:05;;;;;;;6.22;4.43;;;;;;;;;;6264179;22;20016;-89
2020/12/30 09:34:41;;;;;;;12.45;4.95;;;;;;;;;;6262676;23;20016;-88
2020/12/30 09:37:34;;;;;;;16.70;5.90;;;;;;;;;;6191829;23;20020;-88
2020/12/30 09:40:25;;;;;;;11.95;6.50;;;;;;;;;;6189960;23;20004;-86
2020/12/30 09:43:20;;;;;;;11.73;5.43;;;;;;;;;;6262267;23;20031;-89
2020/12/30 09:46:00;;;;;;;11.60;4.90;;;;;;;;;;6267954;23;20058;-89
2020/12/30 09:48:31;;;;;;;12.43;5.15;;;;;;;;;;6219074;23;20038;-86
2020/12/30 09:51:05;;;;;;;16.25;5.60;;;;;;;;;;6218100;23;20016;-90
2020/12/30 09:53:39;;;;;;;9.00;4.45;;;;;;;;;;6269310;22;20076;-89
2020/12/30 09:56:18;;;;;;;8.82;4.03;;;;;;;;;;6246377;23;20064;-88
2020/12/30 09:58:47;;;;;;;7.45;4.97;;;;;;;;;;6263251;22;20014;-87
2020/12/30 10:01:22;;;;;;;8.73;5.10;;;2.80;99.90;;;;;;6299021;22;20016;-86
2020/12/30 10:04:07;;;;;;;14.35;5.05;;;2.90;99.90;;;;;;6247662;22;20003;-86
2020/12/30 10:06:36;;;;;;;9.07;5.00;;;;;;;;;;6247971;22;20016;-88
2020/12/30 10:09:06;;;;;;;12.27;4.38;;;;;;;;;;6267782;22;20026;-87
2020/12/30 10:11:40;;;;;;;8.43;4.20;;;;;;;;;;6244100;22;20019;-89
2020/12/30 10:14:37;;;;;;;8.27;4.43;;;3.30;99.90;;;;;;6244532;22;20020;-88
2020/12/30 10:17:10;;;;;;;9.20;4.97;;;;;;;;;;6247578;22;20022;-86
2020/12/30 10:19:49;;;;;;;8.43;4.60;;;;;;;;;;6271777;22;20019;-89
2020/12/30 10:23:22;;;;;;;20.08;5.07;;;3.60;99.90;;;;;;6289333;22;20030;-88
2020/12/30 10:25:55;;;;;;;7.72;4.25;;;;;;;;;;6289940;22;20023;-86
2020/12/30 10:28:28;;;;;;;7.28;4.68;;;;;;;;;;6272405;22;20020;-88
2020/12/30 10:31:00;;;;;;;12.15;4.47;;;;;;;;;;6245519;22;20024;-89
2020/12/30 10:33:36;;;;;;;13.90;4.95;;;;;;;;;;6297318;22;20030;-87
2020/12/30 10:36:06;;;;;;;7.60;4.55;;;3.80;99.90;;;;;;6244343;22;20444;-87
2020/12/30 10:38:40;;;;;;;11.32;5.45;;;;;;;;;;6267425;22;20026;-87
2020/12/30 10:41:17;;;;;;;10.10;4.97;;;4.00;99.90;;;;;;6239867;22;20068;-86
2020/12/30 10:43:51;;;;;;;7.72;4.47;;;;;;;;;;6238909;22;20031;-86
2020/12/30 10:46:30;;;;;;;9.75;4.85;;;;;;;;;;6242346;22;20015;-88
2020/12/30 10:49:25;;;;;;;7.32;3.95;;;4.00;99.90;;;;;;6294585;22;20019;-89
2020/12/30 10:51:59;;;;;;;15.60;5.47;;;;;;;;;;6262243;22;20015;-89
2020/12/30 10:54:31;;;;;;;11.10;5.93;;;;;;;;;;6293411;22;20030;-87
2020/12/30 10:57:06;;;;;;;12.50;5.80;;;;;;;;;;6246050;22;20015;-86
2020/12/30 10:59:38;;;;;;;18.17;5.70;;;;;;;;;;6242808;22;20028;-89
2020/12/30 11:02:20;;;;;;;8.80;4.25;;;;;;;;;;6242094;22;20501;-89
2020/12/30 11:04:56;;;;;;;11.65;6.45;;;;;;;;;;6266770;22;20027;-88
2020/12/30 11:07:35;;;;;;;18.67;6.97;;;;;;;;;;6271351;22;20012;-88
2020/12/30 11:10:03;;;;;;;12.57;4.28;;;;;;;;;;6242002;22;20019;-89
2020/12/30 11:12:42;;;;;;;8.75;3.97;;;;;;;;;;6245221;22;20022;-88
2020/12/30 11:15:13;;;;;;;10.23;5.60;;;;;;;;;;6267271;22;20382;-86
2020/12/30 11:17:50;;;;;;;11.65;6.07;;;;;;;;;;6294993;22;20026;-87
2020/12/30 11:20:38;;;;;;;16.75;6.50;;;;;;;;;;6267131;22;20015;-86
2020/12/30 11:23:37;;;;;;;11.52;5.53;;;4.40;99.90;;;;;;6240664;22;20019;-87
2020/12/30 11:26:20;;;;;;;12.15;5.68;;;;;;;;;;6245013;22;20016;-86
2020/12/30 11:28:54;;;;;;;13.23;5.05;;;;;;;;;;6242529;22;20026;-88
2020/12/30 11:31:25;;;;;;;21.70;6.97;;;;;;;;;;6242348;22;20435;-85
2020/12/30 11:33:58;;;;;;;12.18;5.22;;;;;;;;;;6281435;22;20015;-85
2020/12/30 11:36:30;;;;;;;11.10;5.10;;;;;;;;;;6268008;22;20033;-86
2020/12/30 11:39:30;;;;;;;12.55;4.65;;;4.80;99.90;;;;;;6294604;22;20019;-87
2020/12/30 11:42:15;;;;;;;11.55;5.07;;;;;;;;;;6264792;22;20015;-85
2020/12/30 11:44:43;;;;;;;14.35;6.03;;;;;;;;;;6260728;22;20016;-85
2020/12/30 11:47:13;;;;;;;16.42;6.03;;;;;;;;;;6262292;22;20026;-86
2020/12/30 11:49:47;;;;;;;10.32;4.40;;;;;;;;;;6264875;22;20015;-85
2020/12/30 11:52:23;;;;;;;13.48;5.75;;;;;;;;;;6265856;22;20026;-85
2020/12/30 11:54:56;;;;;;;11.55;4.88;;;;;;;;;;6263246;22;20016;-85
2020/12/30 11:57:40;;;;;;;9.00;4.10;;;;;;;;;;6288218;22;20519;-84
2020/12/30 12:00:13;;;;;;;9.77;4.47;;;5.20;99.90;;;;;;6286874;22;20031;-86
2020/12/30 12:03:00;;;;;;;20.90;5.45;;;;;;;;;;6291102;22;20020;-85
2020/12/30 12:05:37;;;;;;;14.68;4.13;;;;;;;;;;6298427;22;20463;-85
2020/12/30 12:08:06;;;;;;;18.52;5.25;;;;;;;;;;6256105;22;20015;-86
2020/12/30 12:10:40;;;;;;;9.88;3.88;;;;;;;;;;6267663;22;20026;-90
2020/12/30 12:13:14;;;;;;;12.95;4.68;;;;;;;;;;6264421;22;20016;-86
2020/12/30 12:15:45;;;;;;;12.10;4.30;;;;;;;;;;6261642;22;20016;-87
2020/12/30 12:18:20;;;;;;;11.38;4.63;;;;;;;;;;6261995;22;20016;-88
2020/12/30 12:21:32;;;;;;;12.30;4.40;;;5.60;99.90;;;;;;6265575;22;20015;-84
2020/12/30 12:24:13;;;;;;;10.07;3.83;;;;;;;;;;6263861;22;20022;-86
2020/12/30 12:26:48;;;;;;;16.95;4.15;;;;;;;;;;6289911;22;20024;-84
2020/12/30 12:29:37;;;;;;;6.97;3.72;;;;;;;;;;6237682;22;20015;-84
2020/12/30 12:32:24;;;;;;;7.25;4.20;;;;;;;;;;6262046;22;20020;-86
2020/12/30 12:34:58;;;;;;;11.57;6.07;;;;;;;;;;6212001;22;20333;-86
2020/12/30 12:37:27;;;;;;;10.20;3.65;;;;;;;;;;6236312;22;20518;-86
2020/12/30 12:40:00;;;;;;;16.30;5.47;;;;;;;;;;6243000;22;20019;-86
2020/12/30 12:50:01;;;;;;;9.05;4.65;;;;;;;;;;6289873;22;20012;-88
2020/12/30 12:52:37;;;;;;;11.55;5.55;;;5.90;99.90;;;;;;6215049;22;20023;-88
2020/12/30 12:55:18;;;;;;;10.45;3.95;;;;;;;;;;6269966;22;20019;-87
2020/12/30 12:58:21;;;;;;;11.48;5.05;;;;;;;;;;6295224;22;20030;-88
2020/12/30 13:01:10;;;;;;;14.40;5.43;;;;;;;;;;6282146;22;20069;-88
2020/12/30 13:03:46;;;;;;;17.65;6.20;;;;;;;;;;6293030;22;20347;-87
2020/12/30 13:06:27;;;;;;;18.88;5.93;;;5.80;99.90;;;;;;6217705;22;20026;-88
2020/12/30 13:08:57;;;;;;;15.95;5.78;;;;;;;;;;6240523;22;20026;-88
2020/12/30 13:11:28;;;;;;;11.38;5.75;;;;;;;;;;6265329;22;20015;-86
2020/12/30 13:14:15;;;;;;;13.45;5.40;;;;;;;;;;6242972;22;20020;-87
2020/12/30 13:16:52;;;;;;;21.00;5.82;;;5.90;99.90;;;;;;6267613;22;20356;-88
2020/12/30 13:19:24;;;;;;;;;;;5.80;99.90;;;;;;6268770;22;20020;-86
2020/12/30 13:22:02;;;;;;;11.80;5.78;;;;;;;;;;6242240;22;19918;-88
2020/12/30 13:24:33;;;;;;;24.73;5.28;;;;;;;;;;6233702;22;20028;-86
2020/12/30 13:27:07;;;;;;;10.38;4.68;;;;;;;;;;6243792;22;20019;-88
2020/12/30 13:34:52;;;;;;;10.98;5.30;;;5.90;99.90;;;;;;6291133;22;20015;-87
2020/12/30 13:38:02;;;;;;;21.90;6.95;;;;;;;;;;6243097;22;20012;-86
2020/12/30 13:41:34;;;;;;;15.95;4.53;;;5.60;99.90;;;;;;6267248;22;20020;-85
2020/12/30 13:44:06;;;;;;;9.65;4.90;;;;;;;;;;6295678;22;20046;-89
2020/12/30 13:46:39;;;;;;;10.48;3.38;;;;;;;;;;6288954;22;20026;-90
2020/12/30 13:49:07;;;;;;;9.63;4.15;;;;;;;;;;6268580;22;20019;-87
2020/12/30 13:51:37;;;;;;;14.60;5.17;;;;;;;;;;6241172;22;20023;-86
2020/12/30 13:54:29;;;;;;;8.43;4.28;;;5.90;99.90;;;;;;6241630;22;20257;-90
2020/12/30 13:57:17;;;;;;;17.77;6.45;;;;;;;;;;6268612;22;20016;-90
2020/12/30 14:00:20;;;;;;;12.50;4.40;;;6.00;99.90;;;;;;6239783;23;20024;-89
2020/12/30 14:06:38;;;;;;;20.48;5.95;;;;;;;;;;6257171;23;20016;-91
2020/12/30 14:09:39;;;;;;;10.52;5.07;;;;;;;;;;6239627;23;20026;-89
2020/12/30 14:12:51;;;;;;;10.20;4.97;;;;;;;;;;6245450;23;20024;-90
2020/12/30 14:16:27;;;;;;;9.85;4.38;;;6.20;99.90;;;;;;6215170;23;20025;-90
2020/12/30 14:19:58;;;;;;;11.55;4.65;;;6.20;99.90;;;;;;6163834;23;20023;-90
2020/12/30 14:23:05;;;;;;;14.30;4.32;;;;;;;;;;6188724;23;20020;-88
2020/12/30 14:26:35;;;;;;;20.92;7.32;;;6.20;99.90;;;;;;6209242;23;20027;-89
2020/12/30 14:34:22;;;;;;;22.25;5.82;;;6.20;99.90;;;;;;6249713;22;20080;-90
2020/12/30 14:38:08;;;;;;;26.23;6.65;;;;;;;;;;6250084;23;20028;-91
2020/12/30 14:46:03;;;;;;;16.27;6.38;;;6.10;99.90;;;;;;6212801;23;20019;-89
2020/12/30 14:48:56;;;;;;;8.95;4.55;;;;;;;;;;6192979;23;20008;-88
2020/12/30 14:52:10;;;;;;;7.87;4.60;;;6.10;99.90;;;;;;6181171;23;20020;-89
2020/12/30 14:55:17;;;;;;;11.93;4.85;;;5.80;99.90;;;;;;6240151;23;20138;-90
2020/12/30 14:58:17;;;;;;;14.40;6.47;;;;;;;;;;6239547;22;20015;-89
2020/12/30 15:01:59;;;;;;;16.23;5.05;;;;;;;;;;6225791;23;20044;-90
2020/12/30 15:05:01;;;;;;;13.32;4.65;;;;;;;;;;6190984;23;20088;-88
2020/12/30 15:11:47;;;;;;;12.35;4.80;;;;;;;;;;6243828;23;20034;-87
2020/12/30 15:14:40;;;;;;;11.85;4.38;;;;;;;;;;6179894;23;20067;-88
2020/12/30 15:17:36;;;;;;;12.13;4.10;;;5.40;99.90;;;;;;6262830;23;20020;-89
2020/12/30 15:20:21;;;;;;;10.75;4.55;;;;;;;;;;6235189;22;20080;-89
2020/12/30 15:23:20;;;;;;;16.40;5.15;;;;;;;;;;6245423;23;20068;-88
2020/12/30 15:26:50;;;;;;;12.32;4.47;;;;;;;;;;6258077;22;20067;-86
2020/12/30 15:33:39;;;;;;;18.75;6.28;;;;;;;;;;6294941;22;20031;-89
2020/12/30 15:41:03;;;;;;;20.80;7.10;;;;;;;;;;6311890;22;20010;-86
2020/12/30 15:44:34;;;;;;;16.65;5.03;;;5.50;99.90;;;;;;6285646;22;20024;-87